Terminal Aerodrome Forecast
Issued by NWS

Home | Current Version | Previous Version | Text Only | Print | Product List | Glossary On
Versions: 1 2 3 4 5 6 7 8 9 10 11 12 13 14 15 16 17 18 19 20 21 22 23 24
000
FTUS41 KBTV 250520
TAFSLK
TAF
KSLK 250520Z 2506/2606 00000KT P6SM BKN150
     FM251000 VRB02KT P6SM VCSH BKN050 OVC120
     FM251200 16004KT 5SM -SHRA BR OVC035
     FM251400 19006KT 4SM -SHRA BR OVC015
     FM251700 23008KT P6SM BKN022
     FM251900 22009KT P6SM SCT070=

USA.gov is the U.S. government's official web portal to all federal, state and local government web resources and services.